Bald Hill, Kentucky
Current Conditions -  °F | °C
As of 2:35 PM on Thursday 18 Dec 2014 (Local Time) from KFGX Reporting Station
Overcast Overcast  
Wind Chill: 28°   Ceiling: 1600
Heat Index: 28°   Visibility: 10mi
Dew Point: 22°   Wind: 3mph
Humidity: 78%   Direction: 330°NNW
Pressure: 30.22"   Gusts: NA
Location:  38.436°N, 83.6931°W
Report Text: KFGX 181935Z AUTO 33003KT 10SM BKN016 OVC100 M02/M05 A3022 RMK AO2 T10201054
Loading
Personal Weather Stations






























Interactive Weather Map New forecast layout! Learn more

10-Day Weather Forecast

Advertisements
Track Severe Weather on mobile